sensor_id;sensor_type;location;lat;lon;timestamp;P1;durP1;ratioP1;P2;durP2;ratioP2
14116;SDS011;7137;51.436;6.544;2023-02-11T00:02:12;29.17;;;20.77;;
14116;SDS011;7137;51.436;6.544;2023-02-11T00:05:13;27.70;;;21.57;;
14116;SDS011;7137;51.436;6.544;2023-02-11T00:08:15;26.97;;;21.03;;
14116;SDS011;7137;51.436;6.544;2023-02-11T00:11:17;28.73;;;22.83;;
14116;SDS011;7137;51.436;6.544;2023-02-11T00:14:20;27.57;;;21.40;;
14116;SDS011;7137;51.436;6.544;2023-02-11T00:17:23;30.17;;;20.80;;
14116;SDS011;7137;51.436;6.544;2023-02-11T00:20:24;30.37;;;22.07;;
14116;SDS011;7137;51.436;6.544;2023-02-11T00:23:26;31.17;;;22.17;;
14116;SDS011;7137;51.436;6.544;2023-02-11T00:26:28;27.83;;;20.83;;
14116;SDS011;7137;51.436;6.544;2023-02-11T00:29:31;26.30;;;19.97;;
14116;SDS011;7137;51.436;6.544;2023-02-11T00:32:34;27.40;;;20.33;;
14116;SDS011;7137;51.436;6.544;2023-02-11T00:35:37;28.20;;;21.07;;
14116;SDS011;7137;51.436;6.544;2023-02-11T00:38:39;24.60;;;19.33;;
14116;SDS011;7137;51.436;6.544;2023-02-11T00:41:40;26.20;;;19.70;;
14116;SDS011;7137;51.436;6.544;2023-02-11T00:44:42;25.30;;;19.13;;
14116;SDS011;7137;51.436;6.544;2023-02-11T00:47:45;26.97;;;19.13;;
14116;SDS011;7137;51.436;6.544;2023-02-11T00:50:46;25.53;;;20.10;;
14116;SDS011;7137;51.436;6.544;2023-02-11T00:53:48;26.83;;;19.47;;
14116;SDS011;7137;51.436;6.544;2023-02-11T00:56:49;26.30;;;19.37;;
14116;SDS011;7137;51.436;6.544;2023-02-11T00:59:51;27.77;;;20.13;;
14116;SDS011;7137;51.436;6.544;2023-02-11T01:02:54;25.50;;;18.90;;
14116;SDS011;7137;51.436;6.544;2023-02-11T01:05:55;23.83;;;18.27;;
14116;SDS011;7137;51.436;6.544;2023-02-11T01:08:57;26.97;;;19.27;;
14116;SDS011;7137;51.436;6.544;2023-02-11T01:11:58;22.93;;;17.67;;
14116;SDS011;7137;51.436;6.544;2023-02-11T01:15:00;24.97;;;17.43;;
14116;SDS011;7137;51.436;6.544;2023-02-11T01:18:04;21.70;;;17.43;;
14116;SDS011;7137;51.436;6.544;2023-02-11T01:21:06;22.10;;;17.60;;
14116;SDS011;7137;51.436;6.544;2023-02-11T01:24:08;23.47;;;17.47;;
14116;SDS011;7137;51.436;6.544;2023-02-11T01:27:09;24.53;;;17.57;;
14116;SDS011;7137;51.436;6.544;2023-02-11T01:30:12;24.30;;;17.70;;
14116;SDS011;7137;51.436;6.544;2023-02-11T01:33:15;21.73;;;17.00;;
14116;SDS011;7137;51.436;6.544;2023-02-11T01:36:17;21.43;;;16.00;;
14116;SDS011;7137;51.436;6.544;2023-02-11T01:39:19;21.50;;;16.00;;
14116;SDS011;7137;51.436;6.544;2023-02-11T01:42:21;22.17;;;15.83;;
14116;SDS011;7137;51.436;6.544;2023-02-11T01:49:06;21.33;;;15.87;;
14116;SDS011;7137;51.436;6.544;2023-02-11T01:52:12;22.17;;;16.37;;
14116;SDS011;7137;51.436;6.544;2023-02-11T01:55:18;22.00;;;17.10;;
14116;SDS011;7137;51.436;6.544;2023-02-11T01:58:38;23.90;;;17.23;;
14116;SDS011;7137;51.436;6.544;2023-02-11T02:01:44;21.70;;;17.03;;
14116;SDS011;7137;51.436;6.544;2023-02-11T02:04:52;22.90;;;17.00;;
14116;SDS011;7137;51.436;6.544;2023-02-11T02:08:00;24.07;;;16.80;;
14116;SDS011;7137;51.436;6.544;2023-02-11T02:11:05;22.07;;;16.43;;
14116;SDS011;7137;51.436;6.544;2023-02-11T02:14:07;23.83;;;15.73;;
14116;SDS011;7137;51.436;6.544;2023-02-11T02:17:09;24.03;;;17.20;;
14116;SDS011;7137;51.436;6.544;2023-02-11T02:24:03;22.47;;;16.17;;
14116;SDS011;7137;51.436;6.544;2023-02-11T02:27:43;22.03;;;15.23;;
14116;SDS011;7137;51.436;6.544;2023-02-11T02:30:53;23.77;;;15.77;;
14116;SDS011;7137;51.436;6.544;2023-02-11T02:34:18;19.43;;;14.83;;
14116;SDS011;7137;51.436;6.544;2023-02-11T02:37:26;23.43;;;15.70;;
14116;SDS011;7137;51.436;6.544;2023-02-11T02:40:35;22.50;;;15.43;;
14116;SDS011;7137;51.436;6.544;2023-02-11T02:43:43;20.57;;;14.07;;
14116;SDS011;7137;51.436;6.544;2023-02-11T02:46:47;21.70;;;14.37;;
14116;SDS011;7137;51.436;6.544;2023-02-11T02:49:51;21.63;;;15.30;;
14116;SDS011;7137;51.436;6.544;2023-02-11T02:52:54;20.33;;;14.20;;
14116;SDS011;7137;51.436;6.544;2023-02-11T02:56:07;18.80;;;13.63;;
14116;SDS011;7137;51.436;6.544;2023-02-11T02:59:20;19.40;;;14.23;;
14116;SDS011;7137;51.436;6.544;2023-02-11T03:02:35;21.87;;;14.33;;
14116;SDS011;7137;51.436;6.544;2023-02-11T03:05:46;21.87;;;14.47;;
14116;SDS011;7137;51.436;6.544;2023-02-11T03:08:54;23.03;;;14.30;;
14116;SDS011;7137;51.436;6.544;2023-02-11T03:12:02;19.53;;;13.20;;
14116;SDS011;7137;51.436;6.544;2023-02-11T03:15:06;19.97;;;13.53;;
14116;SDS011;7137;51.436;6.544;2023-02-11T03:18:10;23.27;;;13.30;;
14116;SDS011;7137;51.436;6.544;2023-02-11T03:21:17;19.50;;;13.20;;
14116;SDS011;7137;51.436;6.544;2023-02-11T03:24:20;17.37;;;12.47;;
14116;SDS011;7137;51.436;6.544;2023-02-11T03:27:30;17.13;;;12.70;;
14116;SDS011;7137;51.436;6.544;2023-02-11T03:30:39;18.07;;;12.60;;
14116;SDS011;7137;51.436;6.544;2023-02-11T03:33:49;18.67;;;13.53;;
14116;SDS011;7137;51.436;6.544;2023-02-11T03:37:00;20.30;;;13.37;;
14116;SDS011;7137;51.436;6.544;2023-02-11T03:40:06;16.70;;;12.07;;
14116;SDS011;7137;51.436;6.544;2023-02-11T03:43:13;18.03;;;12.20;;
14116;SDS011;7137;51.436;6.544;2023-02-11T03:46:20;20.80;;;12.90;;
14116;SDS011;7137;51.436;6.544;2023-02-11T03:49:27;15.83;;;10.73;;
14116;SDS011;7137;51.436;6.544;2023-02-11T03:52:31;19.30;;;11.33;;
14116;SDS011;7137;51.436;6.544;2023-02-11T03:55:36;17.90;;;11.67;;
14116;SDS011;7137;51.436;6.544;2023-02-11T03:58:39;18.83;;;11.53;;
14116;SDS011;7137;51.436;6.544;2023-02-11T04:01:41;17.97;;;11.93;;
14116;SDS011;7137;51.436;6.544;2023-02-11T04:04:43;17.40;;;11.20;;
14116;SDS011;7137;51.436;6.544;2023-02-11T04:07:46;19.70;;;12.10;;
14116;SDS011;7137;51.436;6.544;2023-02-11T04:10:48;19.87;;;11.67;;
14116;SDS011;7137;51.436;6.544;2023-02-11T04:13:50;18.27;;;12.63;;
14116;SDS011;7137;51.436;6.544;2023-02-11T04:16:51;18.70;;;12.53;;
14116;SDS011;7137;51.436;6.544;2023-02-11T04:19:53;19.27;;;13.17;;
14116;SDS011;7137;51.436;6.544;2023-02-11T04:22:56;18.93;;;13.10;;
14116;SDS011;7137;51.436;6.544;2023-02-11T04:25:57;22.23;;;12.97;;
14116;SDS011;7137;51.436;6.544;2023-02-11T04:28:59;16.73;;;12.43;;
14116;SDS011;7137;51.436;6.544;2023-02-11T04:32:02;19.50;;;12.23;;
14116;SDS011;7137;51.436;6.544;2023-02-11T04:35:04;19.83;;;13.57;;
14116;SDS011;7137;51.436;6.544;2023-02-11T04:38:07;21.63;;;14.50;;
14116;SDS011;7137;51.436;6.544;2023-02-11T04:41:09;19.50;;;14.00;;
14116;SDS011;7137;51.436;6.544;2023-02-11T04:44:11;18.10;;;13.13;;
14116;SDS011;7137;51.436;6.544;2023-02-11T04:47:12;20.73;;;14.07;;
14116;SDS011;7137;51.436;6.544;2023-02-11T04:50:14;23.80;;;13.70;;
14116;SDS011;7137;51.436;6.544;2023-02-11T04:53:17;20.70;;;14.27;;
14116;SDS011;7137;51.436;6.544;2023-02-11T04:56:19;22.47;;;15.33;;
14116;SDS011;7137;51.436;6.544;2023-02-11T04:59:20;20.23;;;15.37;;
14116;SDS011;7137;51.436;6.544;2023-02-11T05:02:22;20.17;;;15.73;;
14116;SDS011;7137;51.436;6.544;2023-02-11T05:05:23;29.00;;;16.67;;
14116;SDS011;7137;51.436;6.544;2023-02-11T05:08:26;23.83;;;16.63;;
14116;SDS011;7137;51.436;6.544;2023-02-11T05:11:29;23.87;;;16.53;;
14116;SDS011;7137;51.436;6.544;2023-02-11T05:14:31;29.40;;;18.87;;
14116;SDS011;7137;51.436;6.544;2023-02-11T05:17:32;24.97;;;17.60;;
14116;SDS011;7137;51.436;6.544;2023-02-11T05:20:36;28.37;;;19.37;;
14116;SDS011;7137;51.436;6.544;2023-02-11T05:23:39;27.93;;;18.57;;
14116;SDS011;7137;51.436;6.544;2023-02-11T05:26:41;28.40;;;19.17;;
14116;SDS011;7137;51.436;6.544;2023-02-11T05:29:42;23.27;;;18.30;;
14116;SDS011;7137;51.436;6.544;2023-02-11T05:32:44;26.50;;;18.07;;
14116;SDS011;7137;51.436;6.544;2023-02-11T05:35:45;24.07;;;17.77;;
14116;SDS011;7137;51.436;6.544;2023-02-11T05:38:48;24.93;;;17.93;;
14116;SDS011;7137;51.436;6.544;2023-02-11T05:41:50;28.30;;;19.13;;
14116;SDS011;7137;51.436;6.544;2023-02-11T05:44:52;26.03;;;17.97;;
14116;SDS011;7137;51.436;6.544;2023-02-11T05:47:53;23.87;;;18.07;;
14116;SDS011;7137;51.436;6.544;2023-02-11T05:50:55;29.63;;;17.87;;
14116;SDS011;7137;51.436;6.544;2023-02-11T05:53:58;24.70;;;17.47;;
14116;SDS011;7137;51.436;6.544;2023-02-11T05:56:59;27.30;;;18.87;;
14116;SDS011;7137;51.436;6.544;2023-02-11T06:00:01;28.47;;;18.57;;
14116;SDS011;7137;51.436;6.544;2023-02-11T06:03:04;27.70;;;17.40;;
14116;SDS011;7137;51.436;6.544;2023-02-11T06:06:08;28.27;;;17.70;;
14116;SDS011;7137;51.436;6.544;2023-02-11T06:09:11;28.80;;;17.43;;
14116;SDS011;7137;51.436;6.544;2023-02-11T06:12:13;25.33;;;17.07;;
14116;SDS011;7137;51.436;6.544;2023-02-11T06:15:15;28.07;;;16.70;;
14116;SDS011;7137;51.436;6.544;2023-02-11T06:18:16;30.83;;;17.67;;
14116;SDS011;7137;51.436;6.544;2023-02-11T06:21:18;31.27;;;18.37;;
14116;SDS011;7137;51.436;6.544;2023-02-11T06:24:21;25.13;;;16.83;;
14116;SDS011;7137;51.436;6.544;2023-02-11T06:27:22;26.83;;;17.27;;
14116;SDS011;7137;51.436;6.544;2023-02-11T06:30:24;22.53;;;15.77;;
14116;SDS011;7137;51.436;6.544;2023-02-11T06:33:26;28.43;;;16.70;;
14116;SDS011;7137;51.436;6.544;2023-02-11T06:36:27;31.83;;;17.10;;
14116;SDS011;7137;51.436;6.544;2023-02-11T06:39:30;27.17;;;16.33;;
14116;SDS011;7137;51.436;6.544;2023-02-11T06:42:33;21.60;;;15.27;;
14116;SDS011;7137;51.436;6.544;2023-02-11T06:45:37;26.97;;;16.43;;
14116;SDS011;7137;51.436;6.544;2023-02-11T06:48:39;25.70;;;15.80;;
14116;SDS011;7137;51.436;6.544;2023-02-11T06:51:40;25.07;;;16.20;;
14116;SDS011;7137;51.436;6.544;2023-02-11T06:54:43;29.10;;;17.27;;
14116;SDS011;7137;51.436;6.544;2023-02-11T06:57:45;27.90;;;15.60;;
14116;SDS011;7137;51.436;6.544;2023-02-11T07:00:47;27.07;;;16.20;;
14116;SDS011;7137;51.436;6.544;2023-02-11T07:03:49;28.13;;;16.80;;
14116;SDS011;7137;51.436;6.544;2023-02-11T07:06:50;32.13;;;18.40;;
14116;SDS011;7137;51.436;6.544;2023-02-11T07:09:53;24.47;;;16.17;;
14116;SDS011;7137;51.436;6.544;2023-02-11T07:12:55;24.57;;;16.70;;
14116;SDS011;7137;51.436;6.544;2023-02-11T07:15:56;25.43;;;16.47;;
14116;SDS011;7137;51.436;6.544;2023-02-11T07:18:58;25.97;;;16.93;;
14116;SDS011;7137;51.436;6.544;2023-02-11T07:22:01;30.07;;;18.00;;
14116;SDS011;7137;51.436;6.544;2023-02-11T07:25:04;27.77;;;16.83;;
14116;SDS011;7137;51.436;6.544;2023-02-11T07:28:06;27.17;;;16.60;;
14116;SDS011;7137;51.436;6.544;2023-02-11T07:31:08;27.77;;;16.83;;
14116;SDS011;7137;51.436;6.544;2023-02-11T07:34:11;24.90;;;16.83;;
14116;SDS011;7137;51.436;6.544;2023-02-11T07:37:12;26.77;;;17.37;;
14116;SDS011;7137;51.436;6.544;2023-02-11T07:40:15;28.70;;;17.37;;
14116;SDS011;7137;51.436;6.544;2023-02-11T07:43:17;28.20;;;16.97;;
14116;SDS011;7137;51.436;6.544;2023-02-11T07:46:19;28.43;;;17.33;;
14116;SDS011;7137;51.436;6.544;2023-02-11T07:49:22;27.07;;;17.20;;
14116;SDS011;7137;51.436;6.544;2023-02-11T07:52:23;33.90;;;19.23;;
14116;SDS011;7137;51.436;6.544;2023-02-11T07:55:26;27.00;;;16.87;;
14116;SDS011;7137;51.436;6.544;2023-02-11T07:58:28;26.37;;;17.67;;
14116;SDS011;7137;51.436;6.544;2023-02-11T08:01:30;29.07;;;18.07;;
14116;SDS011;7137;51.436;6.544;2023-02-11T08:04:31;25.87;;;17.17;;
14116;SDS011;7137;51.436;6.544;2023-02-11T08:07:33;28.63;;;17.77;;
14116;SDS011;7137;51.436;6.544;2023-02-11T08:10:36;28.60;;;18.10;;
14116;SDS011;7137;51.436;6.544;2023-02-11T08:13:38;25.70;;;16.73;;
14116;SDS011;7137;51.436;6.544;2023-02-11T08:16:39;32.60;;;20.30;;
14116;SDS011;7137;51.436;6.544;2023-02-11T08:19:41;32.87;;;20.67;;
14116;SDS011;7137;51.436;6.544;2023-02-11T08:22:43;31.43;;;18.70;;
14116;SDS011;7137;51.436;6.544;2023-02-11T08:25:46;28.23;;;18.33;;
14116;SDS011;7137;51.436;6.544;2023-02-11T08:28:48;30.50;;;19.10;;
14116;SDS011;7137;51.436;6.544;2023-02-11T08:31:51;28.43;;;18.87;;
14116;SDS011;7137;51.436;6.544;2023-02-11T08:34:53;26.97;;;18.77;;
14116;SDS011;7137;51.436;6.544;2023-02-11T08:37:54;27.17;;;18.93;;
14116;SDS011;7137;51.436;6.544;2023-02-11T08:40:59;29.17;;;19.70;;
14116;SDS011;7137;51.436;6.544;2023-02-11T08:44:01;30.97;;;19.77;;
14116;SDS011;7137;51.436;6.544;2023-02-11T08:47:03;26.33;;;19.77;;
14116;SDS011;7137;51.436;6.544;2023-02-11T08:50:05;33.57;;;21.50;;
14116;SDS011;7137;51.436;6.544;2023-02-11T08:53:07;32.10;;;20.60;;
14116;SDS011;7137;51.436;6.544;2023-02-11T08:56:10;35.20;;;20.60;;
14116;SDS011;7137;51.436;6.544;2023-02-11T08:59:13;31.70;;;20.30;;
14116;SDS011;7137;51.436;6.544;2023-02-11T09:02:17;33.50;;;21.50;;
14116;SDS011;7137;51.436;6.544;2023-02-11T09:05:19;38.67;;;22.97;;
14116;SDS011;7137;51.436;6.544;2023-02-11T09:08:21;32.53;;;20.00;;
14116;SDS011;7137;51.436;6.544;2023-02-11T09:11:25;34.40;;;22.40;;
14116;SDS011;7137;51.436;6.544;2023-02-11T09:14:28;32.73;;;23.17;;
14116;SDS011;7137;51.436;6.544;2023-02-11T09:17:30;33.83;;;22.27;;
14116;SDS011;7137;51.436;6.544;2023-02-11T09:20:31;34.97;;;22.80;;
14116;SDS011;7137;51.436;6.544;2023-02-11T09:23:33;32.40;;;21.40;;
14116;SDS011;7137;51.436;6.544;2023-02-11T09:26:37;33.47;;;22.50;;
14116;SDS011;7137;51.436;6.544;2023-02-11T09:29:42;33.17;;;22.97;;
14116;SDS011;7137;51.436;6.544;2023-02-11T09:36:17;34.50;;;22.70;;
14116;SDS011;7137;51.436;6.544;2023-02-11T09:39:20;38.10;;;23.97;;
14116;SDS011;7137;51.436;6.544;2023-02-11T09:42:35;36.50;;;24.00;;
14116;SDS011;7137;51.436;6.544;2023-02-11T09:45:40;38.93;;;24.63;;
14116;SDS011;7137;51.436;6.544;2023-02-11T09:48:42;31.37;;;22.67;;
14116;SDS011;7137;51.436;6.544;2023-02-11T09:51:46;30.83;;;23.20;;
14116;SDS011;7137;51.436;6.544;2023-02-11T09:54:52;36.50;;;24.03;;
14116;SDS011;7137;51.436;6.544;2023-02-11T09:57:57;36.83;;;24.10;;
14116;SDS011;7137;51.436;6.544;2023-02-11T10:01:01;36.87;;;24.23;;
14116;SDS011;7137;51.436;6.544;2023-02-11T10:04:11;35.43;;;23.20;;
14116;SDS011;7137;51.436;6.544;2023-02-11T10:07:18;37.10;;;23.87;;
14116;SDS011;7137;51.436;6.544;2023-02-11T10:10:30;39.20;;;24.47;;
14116;SDS011;7137;51.436;6.544;2023-02-11T10:13:45;40.63;;;25.30;;
14116;SDS011;7137;51.436;6.544;2023-02-11T10:16:57;39.03;;;24.13;;
14116;SDS011;7137;51.436;6.544;2023-02-11T10:20:14;40.60;;;25.77;;
14116;SDS011;7137;51.436;6.544;2023-02-11T10:23:32;36.13;;;24.87;;
14116;SDS011;7137;51.436;6.544;2023-02-11T10:26:37;43.77;;;26.93;;
14116;SDS011;7137;51.436;6.544;2023-02-11T10:29:42;39.37;;;26.17;;
14116;SDS011;7137;51.436;6.544;2023-02-11T10:32:48;39.23;;;26.53;;
14116;SDS011;7137;51.436;6.544;2023-02-11T10:35:54;38.47;;;25.33;;
14116;SDS011;7137;51.436;6.544;2023-02-11T10:38:57;43.17;;;27.90;;
14116;SDS011;7137;51.436;6.544;2023-02-11T10:42:01;43.17;;;27.77;;
14116;SDS011;7137;51.436;6.544;2023-02-11T10:45:14;41.20;;;27.90;;
14116;SDS011;7137;51.436;6.544;2023-02-11T10:48:35;43.90;;;29.50;;
14116;SDS011;7137;51.436;6.544;2023-02-11T10:51:40;44.17;;;29.00;;
14116;SDS011;7137;51.436;6.544;2023-02-11T10:54:53;43.57;;;28.57;;
14116;SDS011;7137;51.436;6.544;2023-02-11T10:57:56;45.30;;;27.87;;
14116;SDS011;7137;51.436;6.544;2023-02-11T11:01:01;42.70;;;29.17;;
14116;SDS011;7137;51.436;6.544;2023-02-11T11:04:03;41.80;;;27.13;;
14116;SDS011;7137;51.436;6.544;2023-02-11T11:07:12;42.53;;;28.00;;
14116;SDS011;7137;51.436;6.544;2023-02-11T11:10:24;42.93;;;27.70;;
14116;SDS011;7137;51.436;6.544;2023-02-11T11:13:29;43.07;;;28.03;;
14116;SDS011;7137;51.436;6.544;2023-02-11T11:16:33;44.93;;;27.07;;
14116;SDS011;7137;51.436;6.544;2023-02-11T11:19:36;42.93;;;28.93;;
14116;SDS011;7137;51.436;6.544;2023-02-11T11:22:39;43.67;;;29.37;;
14116;SDS011;7137;51.436;6.544;2023-02-11T11:25:43;40.67;;;27.67;;
14116;SDS011;7137;51.436;6.544;2023-02-11T11:28:50;38.53;;;26.93;;
14116;SDS011;7137;51.436;6.544;2023-02-11T11:32:02;39.90;;;27.83;;
14116;SDS011;7137;51.436;6.544;2023-02-11T11:35:16;36.73;;;27.33;;
14116;SDS011;7137;51.436;6.544;2023-02-11T11:38:23;39.33;;;26.70;;
14116;SDS011;7137;51.436;6.544;2023-02-11T11:41:26;36.57;;;26.03;;
14116;SDS011;7137;51.436;6.544;2023-02-11T11:44:31;41.63;;;28.23;;
14116;SDS011;7137;51.436;6.544;2023-02-11T11:47:36;39.37;;;27.63;;
14116;SDS011;7137;51.436;6.544;2023-02-11T11:50:45;38.33;;;27.20;;
14116;SDS011;7137;51.436;6.544;2023-02-11T11:53:50;42.67;;;26.93;;
14116;SDS011;7137;51.436;6.544;2023-02-11T11:56:57;37.23;;;26.67;;
14116;SDS011;7137;51.436;6.544;2023-02-11T12:00:03;39.63;;;27.20;;
14116;SDS011;7137;51.436;6.544;2023-02-11T12:06:46;37.77;;;27.50;;
14116;SDS011;7137;51.436;6.544;2023-02-11T12:10:03;40.87;;;28.53;;
14116;SDS011;7137;51.436;6.544;2023-02-11T12:13:26;43.00;;;28.67;;
14116;SDS011;7137;51.436;6.544;2023-02-11T12:16:42;43.87;;;29.30;;
14116;SDS011;7137;51.436;6.544;2023-02-11T12:23:28;39.20;;;27.53;;
14116;SDS011;7137;51.436;6.544;2023-02-11T12:26:41;38.57;;;27.10;;
14116;SDS011;7137;51.436;6.544;2023-02-11T12:29:50;42.03;;;28.43;;
14116;SDS011;7137;51.436;6.544;2023-02-11T12:33:03;37.47;;;27.13;;
14116;SDS011;7137;51.436;6.544;2023-02-11T12:36:20;37.00;;;26.43;;
14116;SDS011;7137;51.436;6.544;2023-02-11T12:39:38;39.13;;;28.93;;
14116;SDS011;7137;51.436;6.544;2023-02-11T12:43:03;41.13;;;28.97;;
14116;SDS011;7137;51.436;6.544;2023-02-11T12:46:23;39.33;;;28.67;;
14116;SDS011;7137;51.436;6.544;2023-02-11T12:49:44;40.63;;;29.27;;
14116;SDS011;7137;51.436;6.544;2023-02-11T12:53:03;39.40;;;28.93;;
14116;SDS011;7137;51.436;6.544;2023-02-11T12:56:23;40.63;;;29.03;;
14116;SDS011;7137;51.436;6.544;2023-02-11T12:59:32;44.33;;;29.17;;
14116;SDS011;7137;51.436;6.544;2023-02-11T13:02:43;38.03;;;28.43;;
14116;SDS011;7137;51.436;6.544;2023-02-11T13:05:50;37.10;;;28.57;;
14116;SDS011;7137;51.436;6.544;2023-02-11T13:08:56;37.37;;;27.90;;
14116;SDS011;7137;51.436;6.544;2023-02-11T13:12:02;40.10;;;28.77;;
14116;SDS011;7137;51.436;6.544;2023-02-11T13:15:25;43.50;;;30.30;;
14116;SDS011;7137;51.436;6.544;2023-02-11T13:18:31;37.43;;;28.00;;
14116;SDS011;7137;51.436;6.544;2023-02-11T13:21:51;36.60;;;26.60;;
14116;SDS011;7137;51.436;6.544;2023-02-11T13:25:04;40.90;;;30.23;;
14116;SDS011;7137;51.436;6.544;2023-02-11T13:28:22;36.63;;;27.37;;
14116;SDS011;7137;51.436;6.544;2023-02-11T13:31:35;40.23;;;29.13;;
14116;SDS011;7137;51.436;6.544;2023-02-11T13:34:53;39.73;;;29.00;;
14116;SDS011;7137;51.436;6.544;2023-02-11T13:37:56;36.47;;;27.27;;
14116;SDS011;7137;51.436;6.544;2023-02-11T13:41:02;36.90;;;29.13;;
14116;SDS011;7137;51.436;6.544;2023-02-11T13:44:16;38.93;;;28.13;;
14116;SDS011;7137;51.436;6.544;2023-02-11T13:47:24;39.37;;;28.77;;
14116;SDS011;7137;51.436;6.544;2023-02-11T13:50:31;38.03;;;29.93;;
14116;SDS011;7137;51.436;6.544;2023-02-11T13:53:44;38.57;;;28.87;;
14116;SDS011;7137;51.436;6.544;2023-02-11T14:04:04;36.97;;;28.53;;
14116;SDS011;7137;51.436;6.544;2023-02-11T14:07:35;36.93;;;27.37;;
14116;SDS011;7137;51.436;6.544;2023-02-11T14:10:56;36.60;;;28.17;;
14116;SDS011;7137;51.436;6.544;2023-02-11T14:14:11;35.57;;;26.80;;
14116;SDS011;7137;51.436;6.544;2023-02-11T14:17:24;38.13;;;28.30;;
14116;SDS011;7137;51.436;6.544;2023-02-11T14:20:31;37.90;;;28.23;;
14116;SDS011;7137;51.436;6.544;2023-02-11T14:23:36;36.13;;;27.73;;
14116;SDS011;7137;51.436;6.544;2023-02-11T14:26:40;34.23;;;25.93;;
14116;SDS011;7137;51.436;6.544;2023-02-11T14:29:49;33.57;;;25.00;;
14116;SDS011;7137;51.436;6.544;2023-02-11T14:36:31;37.17;;;25.90;;
14116;SDS011;7137;51.436;6.544;2023-02-11T14:39:53;33.10;;;25.80;;
14116;SDS011;7137;51.436;6.544;2023-02-11T14:43:00;37.20;;;26.23;;
14116;SDS011;7137;51.436;6.544;2023-02-11T14:46:07;33.83;;;25.93;;
14116;SDS011;7137;51.436;6.544;2023-02-11T14:49:12;37.30;;;27.13;;
14116;SDS011;7137;51.436;6.544;2023-02-11T14:52:25;35.20;;;26.30;;
14116;SDS011;7137;51.436;6.544;2023-02-11T14:55:29;30.57;;;23.37;;
14116;SDS011;7137;51.436;6.544;2023-02-11T14:58:33;35.83;;;26.40;;
14116;SDS011;7137;51.436;6.544;2023-02-11T15:01:38;31.43;;;24.47;;
14116;SDS011;7137;51.436;6.544;2023-02-11T15:04:42;35.40;;;26.13;;
14116;SDS011;7137;51.436;6.544;2023-02-11T15:07:45;32.93;;;25.00;;
14116;SDS011;7137;51.436;6.544;2023-02-11T15:10:48;31.77;;;23.37;;
14116;SDS011;7137;51.436;6.544;2023-02-11T15:13:50;33.33;;;24.90;;
14116;SDS011;7137;51.436;6.544;2023-02-11T15:16:53;32.70;;;24.43;;
14116;SDS011;7137;51.436;6.544;2023-02-11T15:19:59;34.03;;;25.70;;
14116;SDS011;7137;51.436;6.544;2023-02-11T15:23:03;33.60;;;24.93;;
14116;SDS011;7137;51.436;6.544;2023-02-11T15:26:11;31.37;;;24.30;;
14116;SDS011;7137;51.436;6.544;2023-02-11T15:29:14;33.03;;;25.40;;
14116;SDS011;7137;51.436;6.544;2023-02-11T15:32:17;34.63;;;25.57;;
14116;SDS011;7137;51.436;6.544;2023-02-11T15:35:22;33.93;;;24.80;;
14116;SDS011;7137;51.436;6.544;2023-02-11T15:38:24;35.63;;;26.60;;
14116;SDS011;7137;51.436;6.544;2023-02-11T15:41:33;32.47;;;25.37;;
14116;SDS011;7137;51.436;6.544;2023-02-11T15:44:36;43.57;;;30.30;;
14116;SDS011;7137;51.436;6.544;2023-02-11T15:47:37;35.23;;;26.67;;
14116;SDS011;7137;51.436;6.544;2023-02-11T15:50:47;38.17;;;27.23;;
14116;SDS011;7137;51.436;6.544;2023-02-11T15:53:52;37.37;;;27.87;;
14116;SDS011;7137;51.436;6.544;2023-02-11T15:57:00;36.23;;;28.03;;
14116;SDS011;7137;51.436;6.544;2023-02-11T16:00:05;38.73;;;28.40;;
14116;SDS011;7137;51.436;6.544;2023-02-11T16:03:15;37.50;;;28.60;;
14116;SDS011;7137;51.436;6.544;2023-02-11T16:06:24;38.50;;;28.50;;
14116;SDS011;7137;51.436;6.544;2023-02-11T16:09:32;40.13;;;28.70;;
14116;SDS011;7137;51.436;6.544;2023-02-11T16:12:35;34.73;;;27.73;;
14116;SDS011;7137;51.436;6.544;2023-02-11T16:15:44;37.57;;;29.50;;
14116;SDS011;7137;51.436;6.544;2023-02-11T16:18:48;32.03;;;26.50;;
14116;SDS011;7137;51.436;6.544;2023-02-11T16:21:53;38.20;;;28.33;;
14116;SDS011;7137;51.436;6.544;2023-02-11T16:24:57;36.10;;;28.97;;
14116;SDS011;7137;51.436;6.544;2023-02-11T16:28:00;31.80;;;26.97;;
14116;SDS011;7137;51.436;6.544;2023-02-11T16:31:02;38.00;;;28.73;;
14116;SDS011;7137;51.436;6.544;2023-02-11T16:34:06;34.63;;;30.10;;
14116;SDS011;7137;51.436;6.544;2023-02-11T16:37:14;38.67;;;29.43;;
14116;SDS011;7137;51.436;6.544;2023-02-11T16:40:16;35.37;;;28.00;;
14116;SDS011;7137;51.436;6.544;2023-02-11T16:43:18;33.33;;;27.47;;
14116;SDS011;7137;51.436;6.544;2023-02-11T16:46:20;36.20;;;29.17;;
14116;SDS011;7137;51.436;6.544;2023-02-11T16:49:23;36.57;;;28.40;;
14116;SDS011;7137;51.436;6.544;2023-02-11T16:52:28;43.97;;;31.63;;
14116;SDS011;7137;51.436;6.544;2023-02-11T16:55:31;42.83;;;30.37;;
14116;SDS011;7137;51.436;6.544;2023-02-11T16:58:34;38.40;;;30.10;;
14116;SDS011;7137;51.436;6.544;2023-02-11T17:01:35;36.57;;;28.27;;
14116;SDS011;7137;51.436;6.544;2023-02-11T17:04:39;40.10;;;31.03;;
14116;SDS011;7137;51.436;6.544;2023-02-11T17:07:42;41.43;;;31.97;;
14116;SDS011;7137;51.436;6.544;2023-02-11T17:10:43;44.87;;;32.40;;
14116;SDS011;7137;51.436;6.544;2023-02-11T17:13:45;39.60;;;30.47;;
14116;SDS011;7137;51.436;6.544;2023-02-11T17:16:46;41.03;;;31.77;;
14116;SDS011;7137;51.436;6.544;2023-02-11T17:19:48;45.23;;;32.77;;
14116;SDS011;7137;51.436;6.544;2023-02-11T17:22:51;40.67;;;31.17;;
14116;SDS011;7137;51.436;6.544;2023-02-11T17:25:56;43.93;;;33.97;;
14116;SDS011;7137;51.436;6.544;2023-02-11T17:28:57;49.03;;;35.80;;
14116;SDS011;7137;51.436;6.544;2023-02-11T17:32:00;47.33;;;35.10;;
14116;SDS011;7137;51.436;6.544;2023-02-11T17:35:02;47.60;;;36.03;;
14116;SDS011;7137;51.436;6.544;2023-02-11T17:38:06;42.60;;;33.17;;
14116;SDS011;7137;51.436;6.544;2023-02-11T17:41:07;47.00;;;35.47;;
14116;SDS011;7137;51.436;6.544;2023-02-11T17:44:09;45.10;;;34.87;;
14116;SDS011;7137;51.436;6.544;2023-02-11T17:47:13;42.97;;;33.17;;
14116;SDS011;7137;51.436;6.544;2023-02-11T17:50:14;44.90;;;35.40;;
14116;SDS011;7137;51.436;6.544;2023-02-11T17:53:17;46.90;;;34.77;;
14116;SDS011;7137;51.436;6.544;2023-02-11T17:56:19;47.37;;;34.07;;
14116;SDS011;7137;51.436;6.544;2023-02-11T17:59:21;46.10;;;35.00;;
14116;SDS011;7137;51.436;6.544;2023-02-11T18:02:24;41.17;;;32.10;;
14116;SDS011;7137;51.436;6.544;2023-02-11T18:05:25;47.33;;;35.37;;
14116;SDS011;7137;51.436;6.544;2023-02-11T18:08:28;45.27;;;34.50;;
14116;SDS011;7137;51.436;6.544;2023-02-11T18:11:31;46.00;;;34.50;;
14116;SDS011;7137;51.436;6.544;2023-02-11T18:14:34;46.00;;;36.00;;
14116;SDS011;7137;51.436;6.544;2023-02-11T18:17:35;43.83;;;35.93;;
14116;SDS011;7137;51.436;6.544;2023-02-11T18:20:37;48.07;;;36.07;;
14116;SDS011;7137;51.436;6.544;2023-02-11T18:23:41;49.37;;;37.17;;
14116;SDS011;7137;51.436;6.544;2023-02-11T18:26:42;49.33;;;35.87;;
14116;SDS011;7137;51.436;6.544;2023-02-11T18:29:44;50.53;;;37.17;;
14116;SDS011;7137;51.436;6.544;2023-02-11T18:32:47;50.53;;;36.40;;
14116;SDS011;7137;51.436;6.544;2023-02-11T18:35:53;46.07;;;36.03;;
14116;SDS011;7137;51.436;6.544;2023-02-11T18:38:57;46.30;;;35.30;;
14116;SDS011;7137;51.436;6.544;2023-02-11T18:41:59;52.77;;;41.03;;
14116;SDS011;7137;51.436;6.544;2023-02-11T18:45:01;51.87;;;38.87;;
14116;SDS011;7137;51.436;6.544;2023-02-11T18:48:03;54.20;;;39.97;;